Home   Weather   Ordu   Past weeks
Flag for Turkey

Past Weather in Ordu, Turkey — January 2021

Currently: 41 °F. Passing clouds. (Weather station: Samsun / Carsamba, Turkey). See more current weather

January 2021 Weather in Ordu — Graph

°F

High & Low Weather Summary for January 2021

 TemperatureHumidityPressure
High72 °F (Jan 9, 12:50 pm)94% (Jan 10, 12:50 am)30.36 "Hg (Jan 10, 12:50 am)
Low30 °F (Jan 16, 3:50 am)21% (Jan 5, 12:50 pm)29.47 "Hg (Jan 17, 3:50 am)
Average50 °F73%30.00 "Hg
* Reported Jan 1 12:50 am — Jan 18 2:50 am, Ordu. Weather by CustomWeather, © 2021

Note: Actual official high and low records may vary slightly from our data, if they occured in-between our weather recording intervals... More about our weather records

Ordu Weather History for January 1, 2021

Scroll right to see more
 ConditionsComfort  
Time TempWeatherWind HumidityBarometerVisibility
12:50 am
Fri, Jan 1
39 °FPassing clouds.3 mph81%30.01 "Hg4 mi
1:50 am39 °FPassing clouds.2 mph81%30.04 "Hg4 mi
2:50 am39 °FPassing clouds.3 mph81%30.04 "Hg4 mi
3:50 am39 °FPassing clouds.1 mph81%30.04 "Hg5 mi
4:50 am39 °FPassing clouds.2 mph75%30.04 "Hg5 mi
5:50 am39 °FPassing clouds.6 mph75%30.04 "Hg5 mi
6:50 am45 °FClear.7 mph57%30.07 "Hg10 mi
7:50 am45 °FPassing clouds.3 mph61%30.07 "HgN/A
8:50 am43 °FSunny.1 mph66%30.09 "Hg10 mi
9:50 am57 °FSunny.8 mph44%30.07 "Hg10 mi
10:50 am63 °FSunny.14 mph32%30.07 "Hg10 mi
11:50 am66 °FSunny.16 mph28%30.04 "Hg10 mi
12:50 pm66 °FSunny.14 mph28%30.04 "Hg10 mi
1:50 pm68 °FSunny.14 mph26%30.01 "Hg10 mi
2:50 pm68 °FSunny.10 mph26%30.01 "Hg10 mi
3:50 pm68 °FSunny.9 mph24%30.04 "Hg10 mi
4:50 pm64 °FSunny.8 mph30%30.04 "Hg10 mi
5:50 pm59 °FClear.6 mph36%30.07 "Hg10 mi
6:50 pm54 °FClear.1 mph44%30.09 "Hg10 mi
7:50 pm48 °FClear.2 mph58%30.09 "Hg10 mi
8:50 pm54 °FClear.14 mph72%30.12 "Hg10 mi
9:50 pm55 °FClear.10 mph72%30.15 "Hg10 mi
10:50 pm55 °FClear.10 mph67%30.15 "Hg10 mi
11:50 pm52 °FClear.6 mph77%30.18 "Hg10 mi
Weather by CustomWeather, © 2021

See weather overview